sensor_id;sensor_type;location;lat;lon;timestamp;P1;durP1;ratioP1;P2;durP2;ratioP2
53391;SDS011;41667;51.922;8.850;2023-04-07T00:00:06;7.45;;;5.45;;
53391;SDS011;41667;51.922;8.850;2023-04-07T00:02:32;7.60;;;4.80;;
53391;SDS011;41667;51.922;8.850;2023-04-07T00:04:57;6.70;;;4.53;;
53391;SDS011;41667;51.922;8.850;2023-04-07T00:07:22;5.77;;;5.17;;
53391;SDS011;41667;51.922;8.850;2023-04-07T00:09:47;6.22;;;4.68;;
53391;SDS011;41667;51.922;8.850;2023-04-07T00:12:12;6.03;;;4.30;;
53391;SDS011;41667;51.922;8.850;2023-04-07T00:14:38;7.40;;;4.80;;
53391;SDS011;41667;51.922;8.850;2023-04-07T00:17:03;7.20;;;4.72;;
53391;SDS011;41667;51.922;8.850;2023-04-07T00:19:28;4.88;;;4.10;;
53391;SDS011;41667;51.922;8.850;2023-04-07T00:21:53;6.15;;;4.78;;
53391;SDS011;41667;51.922;8.850;2023-04-07T00:24:18;5.40;;;3.90;;
53391;SDS011;41667;51.922;8.850;2023-04-07T00:26:43;6.53;;;4.30;;
53391;SDS011;41667;51.922;8.850;2023-04-07T00:29:08;4.85;;;4.03;;
53391;SDS011;41667;51.922;8.850;2023-04-07T00:31:33;5.45;;;4.30;;
53391;SDS011;41667;51.922;8.850;2023-04-07T00:33:59;5.95;;;5.15;;
53391;SDS011;41667;51.922;8.850;2023-04-07T00:36:24;7.35;;;4.43;;
53391;SDS011;41667;51.922;8.850;2023-04-07T00:38:49;5.07;;;4.13;;
53391;SDS011;41667;51.922;8.850;2023-04-07T00:41:15;7.35;;;4.78;;
53391;SDS011;41667;51.922;8.850;2023-04-07T00:43:40;8.90;;;4.55;;
53391;SDS011;41667;51.922;8.850;2023-04-07T00:46:05;6.13;;;4.35;;
53391;SDS011;41667;51.922;8.850;2023-04-07T00:48:31;6.72;;;3.70;;
53391;SDS011;41667;51.922;8.850;2023-04-07T00:50:56;6.70;;;4.53;;
53391;SDS011;41667;51.922;8.850;2023-04-07T00:53:21;5.68;;;4.07;;
53391;SDS011;41667;51.922;8.850;2023-04-07T00:55:46;8.13;;;4.45;;
53391;SDS011;41667;51.922;8.850;2023-04-07T00:58:12;5.82;;;3.90;;
53391;SDS011;41667;51.922;8.850;2023-04-07T01:00:40;5.33;;;4.03;;
53391;SDS011;41667;51.922;8.850;2023-04-07T01:03:17;7.25;;;4.30;;
53391;SDS011;41667;51.922;8.850;2023-04-07T01:05:46;6.30;;;4.25;;
53391;SDS011;41667;51.922;8.850;2023-04-07T01:15:46;5.70;;;4.18;;
53391;SDS011;41667;51.922;8.850;2023-04-07T01:18:14;6.70;;;4.85;;
53391;SDS011;41667;51.922;8.850;2023-04-07T01:20:42;5.63;;;4.18;;
53391;SDS011;41667;51.922;8.850;2023-04-07T01:23:07;7.43;;;4.00;;
53391;SDS011;41667;51.922;8.850;2023-04-07T01:28:40;6.88;;;4.35;;
53391;SDS011;41667;51.922;8.850;2023-04-07T01:31:08;7.55;;;4.55;;
53391;SDS011;41667;51.922;8.850;2023-04-07T01:33:34;6.28;;;4.60;;
53391;SDS011;41667;51.922;8.850;2023-04-07T01:36:00;7.78;;;4.85;;
53391;SDS011;41667;51.922;8.850;2023-04-07T01:38:27;6.93;;;4.10;;
53391;SDS011;41667;51.922;8.850;2023-04-07T01:40:53;7.45;;;4.43;;
53391;SDS011;41667;51.922;8.850;2023-04-07T01:43:19;6.28;;;4.93;;
53391;SDS011;41667;51.922;8.850;2023-04-07T01:45:45;7.28;;;5.18;;
53391;SDS011;41667;51.922;8.850;2023-04-07T01:48:11;6.03;;;4.43;;
53391;SDS011;41667;51.922;8.850;2023-04-07T01:50:36;9.13;;;5.28;;
53391;SDS011;41667;51.922;8.850;2023-04-07T01:53:02;7.03;;;5.25;;
53391;SDS011;41667;51.922;8.850;2023-04-07T01:55:28;7.00;;;5.25;;
53391;SDS011;41667;51.922;8.850;2023-04-07T01:57:53;8.37;;;5.43;;
53391;SDS011;41667;51.922;8.850;2023-04-07T02:00:19;8.00;;;6.20;;
53391;SDS011;41667;51.922;8.850;2023-04-07T02:02:45;9.38;;;5.68;;
53391;SDS011;41667;51.922;8.850;2023-04-07T02:05:14;8.05;;;5.35;;
53391;SDS011;41667;51.922;8.850;2023-04-07T02:07:44;7.25;;;5.85;;
53391;SDS011;41667;51.922;8.850;2023-04-07T02:10:11;8.27;;;4.97;;
53391;SDS011;41667;51.922;8.850;2023-04-07T02:12:37;10.98;;;6.32;;
53391;SDS011;41667;51.922;8.850;2023-04-07T02:15:03;8.75;;;5.45;;
53391;SDS011;41667;51.922;8.850;2023-04-07T02:17:29;10.00;;;6.60;;
53391;SDS011;41667;51.922;8.850;2023-04-07T02:19:55;9.52;;;6.55;;
53391;SDS011;41667;51.922;8.850;2023-04-07T02:22:22;11.10;;;7.38;;
53391;SDS011;41667;51.922;8.850;2023-04-07T02:24:47;11.43;;;7.65;;
53391;SDS011;41667;51.922;8.850;2023-04-07T02:27:12;11.40;;;7.60;;
53391;SDS011;41667;51.922;8.850;2023-04-07T02:29:38;10.55;;;7.50;;
53391;SDS011;41667;51.922;8.850;2023-04-07T02:32:04;11.03;;;7.63;;
53391;SDS011;41667;51.922;8.850;2023-04-07T02:34:29;10.73;;;7.05;;
53391;SDS011;41667;51.922;8.850;2023-04-07T02:36:55;14.23;;;8.60;;
53391;SDS011;41667;51.922;8.850;2023-04-07T02:39:20;11.68;;;7.93;;
53391;SDS011;41667;51.922;8.850;2023-04-07T02:41:45;14.75;;;7.40;;
53391;SDS011;41667;51.922;8.850;2023-04-07T02:44:10;10.65;;;7.55;;
53391;SDS011;41667;51.922;8.850;2023-04-07T02:46:35;13.27;;;8.00;;
53391;SDS011;41667;51.922;8.850;2023-04-07T02:49:00;10.73;;;7.00;;
53391;SDS011;41667;51.922;8.850;2023-04-07T02:51:25;13.45;;;8.57;;
53391;SDS011;41667;51.922;8.850;2023-04-07T02:53:51;13.30;;;8.45;;
53391;SDS011;41667;51.922;8.850;2023-04-07T02:56:16;12.85;;;7.88;;
53391;SDS011;41667;51.922;8.850;2023-04-07T02:58:41;13.90;;;7.77;;
53391;SDS011;41667;51.922;8.850;2023-04-07T03:01:06;13.25;;;7.93;;
53391;SDS011;41667;51.922;8.850;2023-04-07T03:03:31;14.33;;;8.53;;
53391;SDS011;41667;51.922;8.850;2023-04-07T03:05:56;12.87;;;8.83;;
53391;SDS011;41667;51.922;8.850;2023-04-07T03:08:22;14.88;;;8.13;;
53391;SDS011;41667;51.922;8.850;2023-04-07T03:10:47;15.10;;;9.05;;
53391;SDS011;41667;51.922;8.850;2023-04-07T03:13:12;15.07;;;9.40;;
53391;SDS011;41667;51.922;8.850;2023-04-07T03:15:40;14.15;;;8.98;;
53391;SDS011;41667;51.922;8.850;2023-04-07T03:18:05;12.65;;;8.25;;
53391;SDS011;41667;51.922;8.850;2023-04-07T03:20:30;14.95;;;8.30;;
53391;SDS011;41667;51.922;8.850;2023-04-07T03:22:55;14.63;;;8.90;;
53391;SDS011;41667;51.922;8.850;2023-04-07T03:25:21;15.20;;;8.05;;
53391;SDS011;41667;51.922;8.850;2023-04-07T03:27:46;15.10;;;8.98;;
53391;SDS011;41667;51.922;8.850;2023-04-07T03:30:11;14.95;;;9.52;;
53391;SDS011;41667;51.922;8.850;2023-04-07T03:32:36;16.98;;;10.15;;
53391;SDS011;41667;51.922;8.850;2023-04-07T03:35:01;12.57;;;8.38;;
53391;SDS011;41667;51.922;8.850;2023-04-07T03:37:26;16.83;;;9.50;;
53391;SDS011;41667;51.922;8.850;2023-04-07T03:39:52;12.00;;;8.70;;
53391;SDS011;41667;51.922;8.850;2023-04-07T03:42:17;13.63;;;9.10;;
53391;SDS011;41667;51.922;8.850;2023-04-07T03:44:42;14.43;;;9.10;;
53391;SDS011;41667;51.922;8.850;2023-04-07T03:47:07;16.52;;;8.85;;
53391;SDS011;41667;51.922;8.850;2023-04-07T03:49:32;17.15;;;9.70;;
53391;SDS011;41667;51.922;8.850;2023-04-07T03:51:57;12.60;;;8.00;;
53391;SDS011;41667;51.922;8.850;2023-04-07T03:54:22;16.63;;;9.25;;
53391;SDS011;41667;51.922;8.850;2023-04-07T03:56:48;16.73;;;9.70;;
53391;SDS011;41667;51.922;8.850;2023-04-07T03:59:13;12.67;;;8.57;;
53391;SDS011;41667;51.922;8.850;2023-04-07T04:01:38;13.45;;;8.43;;
53391;SDS011;41667;51.922;8.850;2023-04-07T04:04:04;14.10;;;8.18;;
53391;SDS011;41667;51.922;8.850;2023-04-07T04:06:29;13.50;;;9.13;;
53391;SDS011;41667;51.922;8.850;2023-04-07T04:08:55;15.30;;;9.45;;
53391;SDS011;41667;51.922;8.850;2023-04-07T04:11:20;14.73;;;9.33;;
53391;SDS011;41667;51.922;8.850;2023-04-07T04:13:46;13.55;;;7.82;;
53391;SDS011;41667;51.922;8.850;2023-04-07T04:16:11;15.85;;;9.27;;
53391;SDS011;41667;51.922;8.850;2023-04-07T04:18:36;18.13;;;9.33;;
53391;SDS011;41667;51.922;8.850;2023-04-07T04:21:01;15.85;;;9.15;;
53391;SDS011;41667;51.922;8.850;2023-04-07T04:23:26;15.38;;;9.05;;
53391;SDS011;41667;51.922;8.850;2023-04-07T04:25:51;13.93;;;8.60;;
53391;SDS011;41667;51.922;8.850;2023-04-07T04:28:16;16.10;;;9.15;;
53391;SDS011;41667;51.922;8.850;2023-04-07T04:30:41;19.60;;;11.15;;
53391;SDS011;41667;51.922;8.850;2023-04-07T04:33:07;18.45;;;10.48;;
53391;SDS011;41667;51.922;8.850;2023-04-07T04:35:32;16.65;;;9.30;;
53391;SDS011;41667;51.922;8.850;2023-04-07T04:37:57;20.10;;;10.43;;
53391;SDS011;41667;51.922;8.850;2023-04-07T04:40:23;17.90;;;9.83;;
53391;SDS011;41667;51.922;8.850;2023-04-07T04:42:48;16.75;;;10.55;;
53391;SDS011;41667;51.922;8.850;2023-04-07T04:45:13;15.87;;;9.97;;
53391;SDS011;41667;51.922;8.850;2023-04-07T04:47:38;20.58;;;11.40;;
53391;SDS011;41667;51.922;8.850;2023-04-07T04:50:04;14.93;;;9.88;;
53391;SDS011;41667;51.922;8.850;2023-04-07T04:52:29;17.15;;;10.18;;
53391;SDS011;41667;51.922;8.850;2023-04-07T04:54:55;18.27;;;11.30;;
53391;SDS011;41667;51.922;8.850;2023-04-07T04:57:20;18.08;;;11.25;;
53391;SDS011;41667;51.922;8.850;2023-04-07T04:59:45;16.50;;;11.20;;
53391;SDS011;41667;51.922;8.850;2023-04-07T05:02:10;17.25;;;11.23;;
53391;SDS011;41667;51.922;8.850;2023-04-07T05:04:36;15.90;;;10.55;;
53391;SDS011;41667;51.922;8.850;2023-04-07T05:07:01;17.73;;;10.75;;
53391;SDS011;41667;51.922;8.850;2023-04-07T05:09:26;17.10;;;9.73;;
53391;SDS011;41667;51.922;8.850;2023-04-07T05:11:51;19.45;;;9.55;;
53391;SDS011;41667;51.922;8.850;2023-04-07T05:14:16;17.70;;;9.32;;
53391;SDS011;41667;51.922;8.850;2023-04-07T05:16:41;11.80;;;8.45;;
53391;SDS011;41667;51.922;8.850;2023-04-07T05:19:07;18.02;;;8.82;;
53391;SDS011;41667;51.922;8.850;2023-04-07T05:21:32;16.85;;;10.25;;
53391;SDS011;41667;51.922;8.850;2023-04-07T05:23:57;12.27;;;8.05;;
53391;SDS011;41667;51.922;8.850;2023-04-07T05:26:22;15.75;;;9.32;;
53391;SDS011;41667;51.922;8.850;2023-04-07T05:28:47;12.50;;;8.52;;
53391;SDS011;41667;51.922;8.850;2023-04-07T05:31:12;19.52;;;9.82;;
53391;SDS011;41667;51.922;8.850;2023-04-07T05:33:37;18.13;;;10.18;;
53391;SDS011;41667;51.922;8.850;2023-04-07T05:36:02;16.42;;;10.10;;
53391;SDS011;41667;51.922;8.850;2023-04-07T05:38:28;15.38;;;9.90;;
53391;SDS011;41667;51.922;8.850;2023-04-07T05:40:53;11.82;;;7.88;;
53391;SDS011;41667;51.922;8.850;2023-04-07T05:43:18;17.08;;;10.77;;
53391;SDS011;41667;51.922;8.850;2023-04-07T05:45:43;16.90;;;9.77;;
53391;SDS011;41667;51.922;8.850;2023-04-07T05:48:08;16.02;;;9.10;;
53391;SDS011;41667;51.922;8.850;2023-04-07T05:50:33;16.58;;;9.90;;
53391;SDS011;41667;51.922;8.850;2023-04-07T05:52:58;14.60;;;8.50;;
53391;SDS011;41667;51.922;8.850;2023-04-07T05:55:23;14.38;;;10.25;;
53391;SDS011;41667;51.922;8.850;2023-04-07T05:57:48;17.08;;;9.77;;
53391;SDS011;41667;51.922;8.850;2023-04-07T06:00:14;17.05;;;10.15;;
53391;SDS011;41667;51.922;8.850;2023-04-07T06:02:39;16.30;;;9.52;;
53391;SDS011;41667;51.922;8.850;2023-04-07T06:05:05;15.70;;;8.93;;
53391;SDS011;41667;51.922;8.850;2023-04-07T06:07:30;17.83;;;9.93;;
53391;SDS011;41667;51.922;8.850;2023-04-07T06:09:55;18.98;;;9.10;;
53391;SDS011;41667;51.922;8.850;2023-04-07T06:12:20;16.80;;;9.68;;
53391;SDS011;41667;51.922;8.850;2023-04-07T06:14:49;12.85;;;9.30;;
53391;SDS011;41667;51.922;8.850;2023-04-07T06:17:15;16.85;;;8.65;;
53391;SDS011;41667;51.922;8.850;2023-04-07T06:19:40;13.63;;;8.32;;
53391;SDS011;41667;51.922;8.850;2023-04-07T06:22:05;11.85;;;7.68;;
53391;SDS011;41667;51.922;8.850;2023-04-07T06:24:30;15.03;;;8.57;;
53391;SDS011;41667;51.922;8.850;2023-04-07T06:26:55;11.30;;;6.95;;
53391;SDS011;41667;51.922;8.850;2023-04-07T06:29:21;13.03;;;7.47;;
53391;SDS011;41667;51.922;8.850;2023-04-07T06:31:46;15.70;;;8.73;;
53391;SDS011;41667;51.922;8.850;2023-04-07T06:34:11;14.95;;;8.88;;
53391;SDS011;41667;51.922;8.850;2023-04-07T06:36:36;13.83;;;8.90;;
53391;SDS011;41667;51.922;8.850;2023-04-07T06:39:01;11.25;;;6.85;;
53391;SDS011;41667;51.922;8.850;2023-04-07T06:41:27;9.82;;;6.65;;
53391;SDS011;41667;51.922;8.850;2023-04-07T06:43:52;9.50;;;5.97;;
53391;SDS011;41667;51.922;8.850;2023-04-07T06:46:17;10.75;;;6.47;;
53391;SDS011;41667;51.922;8.850;2023-04-07T06:48:43;11.30;;;6.32;;
53391;SDS011;41667;51.922;8.850;2023-04-07T06:51:08;8.67;;;6.40;;
53391;SDS011;41667;51.922;8.850;2023-04-07T06:53:33;11.00;;;6.73;;
53391;SDS011;41667;51.922;8.850;2023-04-07T06:56:05;8.75;;;6.60;;
53391;SDS011;41667;51.922;8.850;2023-04-07T06:58:31;9.57;;;6.30;;
53391;SDS011;41667;51.922;8.850;2023-04-07T07:00:56;7.97;;;5.50;;
53391;SDS011;41667;51.922;8.850;2023-04-07T07:03:21;10.88;;;6.50;;
53391;SDS011;41667;51.922;8.850;2023-04-07T07:05:46;9.83;;;6.50;;
53391;SDS011;41667;51.922;8.850;2023-04-07T07:08:11;8.47;;;5.80;;
53391;SDS011;41667;51.922;8.850;2023-04-07T07:10:36;9.65;;;5.97;;
53391;SDS011;41667;51.922;8.850;2023-04-07T07:13:01;9.73;;;5.95;;
53391;SDS011;41667;51.922;8.850;2023-04-07T07:15:27;6.78;;;5.50;;
53391;SDS011;41667;51.922;8.850;2023-04-07T07:17:52;7.57;;;5.63;;
53391;SDS011;41667;51.922;8.850;2023-04-07T07:20:17;10.20;;;6.35;;
53391;SDS011;41667;51.922;8.850;2023-04-07T07:22:42;9.03;;;5.67;;
53391;SDS011;41667;51.922;8.850;2023-04-07T07:25:07;9.00;;;5.03;;
53391;SDS011;41667;51.922;8.850;2023-04-07T07:27:33;7.63;;;5.07;;
53391;SDS011;41667;51.922;8.850;2023-04-07T07:29:58;8.73;;;5.18;;
53391;SDS011;41667;51.922;8.850;2023-04-07T07:32:23;7.33;;;4.67;;
53391;SDS011;41667;51.922;8.850;2023-04-07T07:34:48;7.65;;;5.20;;
53391;SDS011;41667;51.922;8.850;2023-04-07T07:37:13;7.90;;;5.38;;
53391;SDS011;41667;51.922;8.850;2023-04-07T07:39:38;8.85;;;6.15;;
53391;SDS011;41667;51.922;8.850;2023-04-07T07:42:04;7.13;;;5.07;;
53391;SDS011;41667;51.922;8.850;2023-04-07T07:44:29;7.97;;;5.55;;
53391;SDS011;41667;51.922;8.850;2023-04-07T07:46:54;9.15;;;5.93;;
53391;SDS011;41667;51.922;8.850;2023-04-07T07:49:19;7.47;;;4.53;;
53391;SDS011;41667;51.922;8.850;2023-04-07T07:51:45;7.38;;;5.38;;
53391;SDS011;41667;51.922;8.850;2023-04-07T07:54:11;8.95;;;5.57;;
53391;SDS011;41667;51.922;8.850;2023-04-07T07:56:36;7.20;;;4.63;;
53391;SDS011;41667;51.922;8.850;2023-04-07T07:59:02;5.75;;;4.78;;
53391;SDS011;41667;51.922;8.850;2023-04-07T08:01:27;5.40;;;4.53;;
53391;SDS011;41667;51.922;8.850;2023-04-07T08:03:52;6.13;;;4.80;;
53391;SDS011;41667;51.922;8.850;2023-04-07T08:06:18;7.68;;;5.35;;
53391;SDS011;41667;51.922;8.850;2023-04-07T08:08:43;6.90;;;4.77;;
53391;SDS011;41667;51.922;8.850;2023-04-07T08:11:08;9.20;;;4.60;;
53391;SDS011;41667;51.922;8.850;2023-04-07T08:13:33;5.90;;;4.22;;
53391;SDS011;41667;51.922;8.850;2023-04-07T08:15:58;5.90;;;4.43;;
53391;SDS011;41667;51.922;8.850;2023-04-07T08:18:23;6.53;;;4.70;;
53391;SDS011;41667;51.922;8.850;2023-04-07T08:20:49;5.97;;;4.20;;
53391;SDS011;41667;51.922;8.850;2023-04-07T08:23:15;7.03;;;4.30;;
53391;SDS011;41667;51.922;8.850;2023-04-07T08:25:40;6.10;;;4.30;;
53391;SDS011;41667;51.922;8.850;2023-04-07T08:28:05;6.65;;;4.53;;
53391;SDS011;41667;51.922;8.850;2023-04-07T08:30:30;6.40;;;4.57;;
53391;SDS011;41667;51.922;8.850;2023-04-07T08:32:56;7.43;;;4.45;;
53391;SDS011;41667;51.922;8.850;2023-04-07T08:35:21;8.98;;;4.97;;
53391;SDS011;41667;51.922;8.850;2023-04-07T08:37:46;5.72;;;4.30;;
53391;SDS011;41667;51.922;8.850;2023-04-07T08:40:12;4.63;;;3.78;;
53391;SDS011;41667;51.922;8.850;2023-04-07T08:42:41;5.33;;;4.23;;
53391;SDS011;41667;51.922;8.850;2023-04-07T08:45:07;4.63;;;3.70;;
53391;SDS011;41667;51.922;8.850;2023-04-07T08:47:34;6.63;;;4.30;;
53391;SDS011;41667;51.922;8.850;2023-04-07T08:50:00;7.13;;;4.57;;
53391;SDS011;41667;51.922;8.850;2023-04-07T08:52:28;6.40;;;4.78;;
53391;SDS011;41667;51.922;8.850;2023-04-07T08:54:56;4.88;;;4.38;;
53391;SDS011;41667;51.922;8.850;2023-04-07T08:57:22;8.80;;;5.60;;
53391;SDS011;41667;51.922;8.850;2023-04-07T08:59:47;7.32;;;4.93;;
53391;SDS011;41667;51.922;8.850;2023-04-07T09:02:15;6.35;;;3.92;;
53391;SDS011;41667;51.922;8.850;2023-04-07T09:04:41;5.88;;;4.43;;
53391;SDS011;41667;51.922;8.850;2023-04-07T09:07:07;5.57;;;4.15;;
53391;SDS011;41667;51.922;8.850;2023-04-07T09:09:32;4.73;;;4.00;;
53391;SDS011;41667;51.922;8.850;2023-04-07T09:11:57;6.83;;;4.80;;
53391;SDS011;41667;51.922;8.850;2023-04-07T09:14:22;4.78;;;4.22;;
53391;SDS011;41667;51.922;8.850;2023-04-07T09:16:47;6.72;;;3.88;;
53391;SDS011;41667;51.922;8.850;2023-04-07T09:19:13;5.00;;;4.32;;
53391;SDS011;41667;51.922;8.850;2023-04-07T09:21:47;5.28;;;4.18;;
53391;SDS011;41667;51.922;8.850;2023-04-07T09:24:47;6.18;;;4.43;;
53391;SDS011;41667;51.922;8.850;2023-04-07T09:27:12;5.07;;;4.57;;
53391;SDS011;41667;51.922;8.850;2023-04-07T09:29:39;4.40;;;3.70;;
53391;SDS011;41667;51.922;8.850;2023-04-07T09:32:04;7.40;;;5.10;;
53391;SDS011;41667;51.922;8.850;2023-04-07T09:34:31;5.15;;;4.65;;
53391;SDS011;41667;51.922;8.850;2023-04-07T09:36:57;6.70;;;4.53;;
53391;SDS011;41667;51.922;8.850;2023-04-07T09:39:23;6.15;;;4.22;;
53391;SDS011;41667;51.922;8.850;2023-04-07T09:41:48;4.78;;;3.72;;
53391;SDS011;41667;51.922;8.850;2023-04-07T09:44:13;5.30;;;3.67;;
53391;SDS011;41667;51.922;8.850;2023-04-07T09:46:51;8.63;;;4.90;;
53391;SDS011;41667;51.922;8.850;2023-04-07T09:49:16;6.05;;;4.25;;
53391;SDS011;41667;51.922;8.850;2023-04-07T09:54:31;5.15;;;4.03;;
53391;SDS011;41667;51.922;8.850;2023-04-07T09:56:57;4.85;;;4.00;;
53391;SDS011;41667;51.922;8.850;2023-04-07T09:59:22;5.78;;;4.43;;
53391;SDS011;41667;51.922;8.850;2023-04-07T10:01:48;5.68;;;3.90;;
53391;SDS011;41667;51.922;8.850;2023-04-07T10:04:13;6.80;;;3.57;;
53391;SDS011;41667;51.922;8.850;2023-04-07T10:06:38;5.40;;;3.57;;
53391;SDS011;41667;51.922;8.850;2023-04-07T10:09:05;5.85;;;4.10;;
53391;SDS011;41667;51.922;8.850;2023-04-07T10:11:31;9.65;;;4.07;;
53391;SDS011;41667;51.922;8.850;2023-04-07T10:13:57;5.65;;;4.10;;
53391;SDS011;41667;51.922;8.850;2023-04-07T10:16:22;6.90;;;5.13;;
53391;SDS011;41667;51.922;8.850;2023-04-07T10:18:47;5.88;;;3.90;;
53391;SDS011;41667;51.922;8.850;2023-04-07T10:21:13;6.90;;;5.10;;
53391;SDS011;41667;51.922;8.850;2023-04-07T10:23:47;5.97;;;4.97;;
53391;SDS011;41667;51.922;8.850;2023-04-07T10:26:15;6.38;;;4.93;;
53391;SDS011;41667;51.922;8.850;2023-04-07T10:28:42;6.43;;;4.63;;
53391;SDS011;41667;51.922;8.850;2023-04-07T10:31:09;6.13;;;4.80;;
53391;SDS011;41667;51.922;8.850;2023-04-07T10:33:44;6.90;;;4.47;;
53391;SDS011;41667;51.922;8.850;2023-04-07T10:36:10;7.00;;;4.90;;
53391;SDS011;41667;51.922;8.850;2023-04-07T10:38:36;10.27;;;5.07;;
53391;SDS011;41667;51.922;8.850;2023-04-07T10:41:30;7.28;;;4.85;;
53391;SDS011;41667;51.922;8.850;2023-04-07T10:43:46;6.43;;;3.67;;
53391;SDS011;41667;51.922;8.850;2023-04-07T10:46:11;8.25;;;5.28;;
53391;SDS011;41667;51.922;8.850;2023-04-07T10:48:36;5.85;;;4.50;;
53391;SDS011;41667;51.922;8.850;2023-04-07T10:53:31;5.72;;;4.75;;
53391;SDS011;41667;51.922;8.850;2023-04-07T10:55:57;7.03;;;5.20;;
53391;SDS011;41667;51.922;8.850;2023-04-07T11:01:15;8.43;;;5.97;;
53391;SDS011;41667;51.922;8.850;2023-04-07T11:06:02;6.57;;;5.57;;
53391;SDS011;41667;51.922;8.850;2023-04-07T11:08:31;7.38;;;5.43;;
53391;SDS011;41667;51.922;8.850;2023-04-07T11:10:56;6.70;;;5.32;;
53391;SDS011;41667;51.922;8.850;2023-04-07T11:13:21;10.20;;;6.28;;
53391;SDS011;41667;51.922;8.850;2023-04-07T11:15:47;5.53;;;4.68;;
53391;SDS011;41667;51.922;8.850;2023-04-07T11:18:14;10.55;;;6.35;;
53391;SDS011;41667;51.922;8.850;2023-04-07T11:20:41;6.93;;;5.47;;
53391;SDS011;41667;51.922;8.850;2023-04-07T11:23:06;9.27;;;6.57;;
53391;SDS011;41667;51.922;8.850;2023-04-07T11:25:32;8.87;;;6.10;;
53391;SDS011;41667;51.922;8.850;2023-04-07T11:27:57;10.30;;;6.05;;
53391;SDS011;41667;51.922;8.850;2023-04-07T11:30:23;7.55;;;5.85;;
53391;SDS011;41667;51.922;8.850;2023-04-07T11:32:48;8.70;;;6.40;;
53391;SDS011;41667;51.922;8.850;2023-04-07T11:35:14;7.43;;;5.72;;
53391;SDS011;41667;51.922;8.850;2023-04-07T11:37:40;7.13;;;6.10;;
53391;SDS011;41667;51.922;8.850;2023-04-07T11:40:06;8.68;;;6.43;;
53391;SDS011;41667;51.922;8.850;2023-04-07T11:44:57;9.85;;;6.53;;
53391;SDS011;41667;51.922;8.850;2023-04-07T11:47:32;11.17;;;6.80;;
53391;SDS011;41667;51.922;8.850;2023-04-07T11:49:57;10.18;;;6.32;;
53391;SDS011;41667;51.922;8.850;2023-04-07T11:52:22;11.50;;;6.85;;
53391;SDS011;41667;51.922;8.850;2023-04-07T11:54:48;9.80;;;7.20;;
53391;SDS011;41667;51.922;8.850;2023-04-07T11:57:26;9.75;;;7.28;;
53391;SDS011;41667;51.922;8.850;2023-04-07T12:00:07;7.55;;;6.60;;
53391;SDS011;41667;51.922;8.850;2023-04-07T12:02:33;9.30;;;6.68;;
53391;SDS011;41667;51.922;8.850;2023-04-07T12:04:58;9.93;;;6.53;;
53391;SDS011;41667;51.922;8.850;2023-04-07T12:07:23;9.85;;;7.30;;
53391;SDS011;41667;51.922;8.850;2023-04-07T12:09:48;9.43;;;6.75;;
53391;SDS011;41667;51.922;8.850;2023-04-07T12:12:13;9.37;;;7.10;;
53391;SDS011;41667;51.922;8.850;2023-04-07T12:14:48;9.07;;;7.40;;
53391;SDS011;41667;51.922;8.850;2023-04-07T12:17:24;15.95;;;7.57;;
53391;SDS011;41667;51.922;8.850;2023-04-07T12:19:49;11.70;;;7.32;;
53391;SDS011;41667;51.922;8.850;2023-04-07T12:22:14;9.60;;;6.68;;
53391;SDS011;41667;51.922;8.850;2023-04-07T12:24:40;10.43;;;6.20;;
53391;SDS011;41667;51.922;8.850;2023-04-07T12:27:05;11.77;;;7.13;;
53391;SDS011;41667;51.922;8.850;2023-04-07T12:29:30;10.73;;;7.10;;
53391;SDS011;41667;51.922;8.850;2023-04-07T12:31:55;9.07;;;6.50;;
53391;SDS011;41667;51.922;8.850;2023-04-07T12:34:20;7.95;;;6.53;;
53391;SDS011;41667;51.922;8.850;2023-04-07T12:36:45;10.93;;;7.05;;
53391;SDS011;41667;51.922;8.850;2023-04-07T12:39:11;9.70;;;6.93;;
53391;SDS011;41667;51.922;8.850;2023-04-07T12:41:36;9.30;;;6.20;;
53391;SDS011;41667;51.922;8.850;2023-04-07T12:44:02;9.48;;;6.45;;
53391;SDS011;41667;51.922;8.850;2023-04-07T12:46:27;9.90;;;6.77;;
53391;SDS011;41667;51.922;8.850;2023-04-07T12:48:52;10.15;;;7.50;;
53391;SDS011;41667;51.922;8.850;2023-04-07T12:51:18;9.32;;;7.10;;
53391;SDS011;41667;51.922;8.850;2023-04-07T12:53:43;8.83;;;7.07;;
53391;SDS011;41667;51.922;8.850;2023-04-07T12:56:08;10.75;;;7.10;;
53391;SDS011;41667;51.922;8.850;2023-04-07T12:58:34;8.40;;;6.75;;
53391;SDS011;41667;51.922;8.850;2023-04-07T13:00:59;8.40;;;6.90;;
53391;SDS011;41667;51.922;8.850;2023-04-07T13:03:24;8.55;;;6.65;;
53391;SDS011;41667;51.922;8.850;2023-04-07T13:05:49;11.18;;;6.82;;
53391;SDS011;41667;51.922;8.850;2023-04-07T13:08:15;8.70;;;6.90;;
53391;SDS011;41667;51.922;8.850;2023-04-07T13:10:40;11.63;;;7.90;;
53391;SDS011;41667;51.922;8.850;2023-04-07T13:13:05;9.27;;;6.97;;
53391;SDS011;41667;51.922;8.850;2023-04-07T13:15:30;7.88;;;6.85;;
53391;SDS011;41667;51.922;8.850;2023-04-07T13:17:55;9.60;;;7.10;;
53391;SDS011;41667;51.922;8.850;2023-04-07T13:20:21;8.83;;;7.07;;
53391;SDS011;41667;51.922;8.850;2023-04-07T13:22:46;9.93;;;7.63;;
53391;SDS011;41667;51.922;8.850;2023-04-07T13:25:12;11.43;;;7.10;;
53391;SDS011;41667;51.922;8.850;2023-04-07T13:27:37;8.00;;;6.93;;
53391;SDS011;41667;51.922;8.850;2023-04-07T13:30:02;11.63;;;7.55;;
53391;SDS011;41667;51.922;8.850;2023-04-07T13:32:27;10.45;;;7.47;;
53391;SDS011;41667;51.922;8.850;2023-04-07T13:34:53;10.07;;;7.10;;
53391;SDS011;41667;51.922;8.850;2023-04-07T13:37:18;7.67;;;6.57;;
53391;SDS011;41667;51.922;8.850;2023-04-07T13:39:44;9.52;;;7.50;;
53391;SDS011;41667;51.922;8.850;2023-04-07T13:42:09;9.88;;;7.13;;
53391;SDS011;41667;51.922;8.850;2023-04-07T13:44:35;10.75;;;7.05;;
53391;SDS011;41667;51.922;8.850;2023-04-07T13:47:01;11.43;;;7.22;;
53391;SDS011;41667;51.922;8.850;2023-04-07T13:49:27;9.52;;;6.90;;
53391;SDS011;41667;51.922;8.850;2023-04-07T13:51:53;10.50;;;7.63;;
53391;SDS011;41667;51.922;8.850;2023-04-07T13:54:18;11.52;;;7.57;;
53391;SDS011;41667;51.922;8.850;2023-04-07T13:56:43;15.17;;;7.87;;
53391;SDS011;41667;51.922;8.850;2023-04-07T13:59:08;9.77;;;7.75;;
53391;SDS011;41667;51.922;8.850;2023-04-07T14:01:33;10.30;;;7.10;;
53391;SDS011;41667;51.922;8.850;2023-04-07T14:03:59;10.40;;;8.05;;
53391;SDS011;41667;51.922;8.850;2023-04-07T14:06:24;11.82;;;7.80;;
53391;SDS011;41667;51.922;8.850;2023-04-07T14:08:51;9.77;;;7.80;;
53391;SDS011;41667;51.922;8.850;2023-04-07T14:11:19;12.48;;;7.85;;
53391;SDS011;41667;51.922;8.850;2023-04-07T14:13:46;11.82;;;8.13;;
53391;SDS011;41667;51.922;8.850;2023-04-07T14:16:11;12.83;;;7.37;;
53391;SDS011;41667;51.922;8.850;2023-04-07T14:18:37;10.50;;;7.32;;
53391;SDS011;41667;51.922;8.850;2023-04-07T14:21:02;12.40;;;7.88;;
53391;SDS011;41667;51.922;8.850;2023-04-07T14:23:27;12.73;;;7.75;;
53391;SDS011;41667;51.922;8.850;2023-04-07T14:25:53;11.55;;;7.97;;
53391;SDS011;41667;51.922;8.850;2023-04-07T14:28:18;10.98;;;7.32;;
53391;SDS011;41667;51.922;8.850;2023-04-07T14:30:43;9.40;;;7.77;;
53391;SDS011;41667;51.922;8.850;2023-04-07T14:33:08;15.52;;;7.10;;
53391;SDS011;41667;51.922;8.850;2023-04-07T14:35:35;9.93;;;7.22;;
53391;SDS011;41667;51.922;8.850;2023-04-07T14:38:00;10.70;;;6.68;;
53391;SDS011;41667;51.922;8.850;2023-04-07T14:40:26;9.63;;;6.68;;
53391;SDS011;41667;51.922;8.850;2023-04-07T14:42:51;9.88;;;6.95;;
53391;SDS011;41667;51.922;8.850;2023-04-07T14:45:16;10.85;;;6.85;;
53391;SDS011;41667;51.922;8.850;2023-04-07T14:47:41;8.95;;;6.75;;
53391;SDS011;41667;51.922;8.850;2023-04-07T14:50:06;10.20;;;6.65;;
53391;SDS011;41667;51.922;8.850;2023-04-07T14:52:32;8.93;;;6.63;;
53391;SDS011;41667;51.922;8.850;2023-04-07T14:54:57;13.30;;;7.50;;